Grand Island, NE

2:00 AM CST en Diciembre 20, 2014 (GMT -0600)
Barr | Change Station
CLOSE
Current Station
Estación meteorológica personal
Location: Grand Island, NE
Altura: 1864 ft
Estaciones meteorológicas cercanas
Aviso en curso: Dense Fog Advisory

Alt 1864 ft 40.90 °N, 98.34 °W | Updated 5 minutes ago

Niebla
Niebla
30.9 ° F
Sensación térmica 31 ° F
N
1.7
Viento Variable Viento desde Oeste

Hoy
Alta -- | Baja -- ° F
--% Posibilidad de precipitaciones
Ayer
Alta -- | Baja -- ° F
Precip. -- pul
7:54 AM 5:08 PM
Creciente menguante, 4% visible
Presión 30.12 pul
Visibilidad 0.8 Millas
Nubes Nublado 300 ft
Vientos helados 31 ° F
Punto de rocío 31 ° F
Humedad 99%
Precipitaciones 0.00 pul
Espesor de la nieve No disponible.
UV 0 de una escala de 12
Polen .10 de una escala de 12
Calidad del aire No disponible.
Flu Activity No disponible.
METAR KGRI 200753Z AUTO 21003KT 3/4SM R35/3500VP6000FT BR OVC003 M01/M01 A3005 RMK AO2 SLP197 T10061006

More Conditions Fewer Conditions

Presión 30.12 pul
Visibilidad 0.8 Millas
Nubes Nublado 300 ft
Vientos helados 31 ° F
Punto de rocío 31 ° F
Humedad 99%
Precipitaciones 0.00 pul
Espesor de la nieve No disponible.
UV 0 de una escala de 12
Polen .10 de una escala de 12
Calidad del aire No disponible.
Flu Activity No disponible.
METAR KGRI 200753Z AUTO 21003KT 3/4SM R35/3500VP6000FT BR OVC003 M01/M01 A3005 RMK AO2 SLP197 T10061006

More Conditions Fewer Conditions

10-Day Weather Forecast

Almanac

Astronomía

Dec. 20, 2014 Salida Puesta
Hora real
Crepúsculo civil
Crepúsculo náutico
Crepúsculo astronómico
Luna
Horas de luz
Horas de luz
Tomorrow will be .
, % of the Moon is Illuminated

Extremos de hoy

Máximos del estado Bajos del estado

Community

WunderPhotos

Upload Photos

1,779,146 ¡fotos cargadas!

WunderBlogs® & News

Nearby

Calidad del aire

  Calidad del aire Índice AQ Contaminante
Not available.

Grosos de nieve

Estación Profundido Altura

Actividad de terremotos

Ciudad Distance Mag. Tiempo y dato
Magnitud mínima muestra es 2,5.

Temperaturas de aguas costeras

Lugar Temperatura

Estaciones meteorológicas cercanas